sensor_id;sensor_type;location;lat;lon;timestamp;temperature;humidity
44863;DHT22;30597;49.628;10.850;2023-07-16T00:40:20;29.00;56.40
44863;DHT22;30597;49.628;10.850;2023-07-16T00:42:46;29.10;56.70
44863;DHT22;30597;49.628;10.850;2023-07-16T00:45:12;29.00;56.60
44863;DHT22;30597;49.628;10.850;2023-07-16T00:47:42;29.10;56.80
44863;DHT22;30597;49.628;10.850;2023-07-16T00:50:10;29.10;56.70
44863;DHT22;30597;49.628;10.850;2023-07-16T00:52:36;29.00;56.70
44863;DHT22;30597;49.628;10.850;2023-07-16T00:55:02;29.00;56.60
44863;DHT22;30597;49.628;10.850;2023-07-16T00:57:29;29.00;56.70
44863;DHT22;30597;49.628;10.850;2023-07-16T00:59:54;29.10;56.80
44863;DHT22;30597;49.628;10.850;2023-07-16T01:02:20;29.00;56.60
44863;DHT22;30597;49.628;10.850;2023-07-16T01:04:46;28.90;56.60
44863;DHT22;30597;49.628;10.850;2023-07-16T01:07:14;28.90;57.00
44863;DHT22;30597;49.628;10.850;2023-07-16T01:09:42;28.90;57.00
44863;DHT22;30597;49.628;10.850;2023-07-16T01:12:09;28.90;57.20
44863;DHT22;30597;49.628;10.850;2023-07-16T01:14:35;28.80;57.20
44863;DHT22;30597;49.628;10.850;2023-07-16T01:17:05;28.90;57.30
44863;DHT22;30597;49.628;10.850;2023-07-16T01:19:34;28.80;57.20
44863;DHT22;30597;49.628;10.850;2023-07-16T01:30:27;28.70;57.20
44863;DHT22;30597;49.628;10.850;2023-07-16T01:32:55;28.70;57.30
44863;DHT22;30597;49.628;10.850;2023-07-16T01:35:21;28.70;58.20
44863;DHT22;30597;49.628;10.850;2023-07-16T01:37:47;28.80;57.40
44863;DHT22;30597;49.628;10.850;2023-07-16T01:40:13;28.80;57.40
44863;DHT22;30597;49.628;10.850;2023-07-16T01:42:39;28.80;57.40
44863;DHT22;30597;49.628;10.850;2023-07-16T01:45:05;28.80;57.30
44863;DHT22;30597;49.628;10.850;2023-07-16T01:50:09;28.90;56.90
44863;DHT22;30597;49.628;10.850;2023-07-16T01:52:35;28.90;56.80
44863;DHT22;30597;49.628;10.850;2023-07-16T01:55:00;28.90;56.90
44863;DHT22;30597;49.628;10.850;2023-07-16T01:57:26;28.90;57.00
44863;DHT22;30597;49.628;10.850;2023-07-16T01:59:51;29.00;57.00
44863;DHT22;30597;49.628;10.850;2023-07-16T02:02:17;28.90;57.00
44863;DHT22;30597;49.628;10.850;2023-07-16T02:04:42;28.80;57.00
44863;DHT22;30597;49.628;10.850;2023-07-16T02:07:08;28.80;57.20
44863;DHT22;30597;49.628;10.850;2023-07-16T02:09:34;28.80;57.40
44863;DHT22;30597;49.628;10.850;2023-07-16T02:12:00;28.80;57.60
44863;DHT22;30597;49.628;10.850;2023-07-16T02:14:26;28.80;57.50
44863;DHT22;30597;49.628;10.850;2023-07-16T02:16:51;28.80;57.40
44863;DHT22;30597;49.628;10.850;2023-07-16T02:19:20;28.80;57.30
44863;DHT22;30597;49.628;10.850;2023-07-16T02:21:45;28.80;57.30
44863;DHT22;30597;49.628;10.850;2023-07-16T02:24:11;28.80;57.10
44863;DHT22;30597;49.628;10.850;2023-07-16T02:26:36;28.80;57.10
44863;DHT22;30597;49.628;10.850;2023-07-16T02:29:02;28.70;56.90
44863;DHT22;30597;49.628;10.850;2023-07-16T02:31:27;28.70;57.50
44863;DHT22;30597;49.628;10.850;2023-07-16T02:33:55;28.70;56.90
44863;DHT22;30597;49.628;10.850;2023-07-16T02:36:21;28.70;56.80
44863;DHT22;30597;49.628;10.850;2023-07-16T02:38:46;28.70;56.70
44863;DHT22;30597;49.628;10.850;2023-07-16T02:41:12;28.70;56.60
44863;DHT22;30597;49.628;10.850;2023-07-16T02:43:37;28.70;56.50
44863;DHT22;30597;49.628;10.850;2023-07-16T02:46:03;28.70;56.50
44863;DHT22;30597;49.628;10.850;2023-07-16T02:48:28;28.60;56.30
44863;DHT22;30597;49.628;10.850;2023-07-16T02:50:54;28.70;56.40
44863;DHT22;30597;49.628;10.850;2023-07-16T02:53:19;28.70;56.30
44863;DHT22;30597;49.628;10.850;2023-07-16T02:55:45;28.60;56.20
44863;DHT22;30597;49.628;10.850;2023-07-16T02:58:11;28.70;56.10
44863;DHT22;30597;49.628;10.850;2023-07-16T03:00:37;28.60;56.00
44863;DHT22;30597;49.628;10.850;2023-07-16T03:03:02;28.60;56.00
44863;DHT22;30597;49.628;10.850;2023-07-16T03:05:28;28.60;55.90
44863;DHT22;30597;49.628;10.850;2023-07-16T03:07:54;28.60;55.70
44863;DHT22;30597;49.628;10.850;2023-07-16T03:10:20;28.70;55.90
44863;DHT22;30597;49.628;10.850;2023-07-16T03:12:46;28.60;55.90
44863;DHT22;30597;49.628;10.850;2023-07-16T03:15:12;28.60;55.70
44863;DHT22;30597;49.628;10.850;2023-07-16T03:17:37;28.60;55.60
44863;DHT22;30597;49.628;10.850;2023-07-16T03:20:03;28.60;55.60
44863;DHT22;30597;49.628;10.850;2023-07-16T03:22:31;28.60;55.60
44863;DHT22;30597;49.628;10.850;2023-07-16T03:24:57;28.60;55.50
44863;DHT22;30597;49.628;10.850;2023-07-16T03:27:23;28.60;55.50
44863;DHT22;30597;49.628;10.850;2023-07-16T03:29:48;28.50;55.30
44863;DHT22;30597;49.628;10.850;2023-07-16T03:32:14;28.60;55.30
44863;DHT22;30597;49.628;10.850;2023-07-16T03:34:39;28.60;55.20
44863;DHT22;30597;49.628;10.850;2023-07-16T03:37:05;28.60;55.10
44863;DHT22;30597;49.628;10.850;2023-07-16T03:39:31;28.50;55.10
44863;DHT22;30597;49.628;10.850;2023-07-16T03:41:56;28.50;55.10
44863;DHT22;30597;49.628;10.850;2023-07-16T03:44:22;28.50;55.00
44863;DHT22;30597;49.628;10.850;2023-07-16T03:46:48;28.50;54.90
44863;DHT22;30597;49.628;10.850;2023-07-16T03:49:13;28.50;54.90
44863;DHT22;30597;49.628;10.850;2023-07-16T03:51:39;28.40;54.70
44863;DHT22;30597;49.628;10.850;2023-07-16T03:54:04;28.50;54.90
44863;DHT22;30597;49.628;10.850;2023-07-16T03:56:30;28.50;54.90
44863;DHT22;30597;49.628;10.850;2023-07-16T03:58:55;28.50;54.90
44863;DHT22;30597;49.628;10.850;2023-07-16T04:01:21;28.50;54.80
44863;DHT22;30597;49.628;10.850;2023-07-16T04:03:46;28.40;54.60
44863;DHT22;30597;49.628;10.850;2023-07-16T04:06:12;28.40;54.60
44863;DHT22;30597;49.628;10.850;2023-07-16T04:08:38;28.50;54.60
44863;DHT22;30597;49.628;10.850;2023-07-16T04:11:04;28.50;54.60
44863;DHT22;30597;49.628;10.850;2023-07-16T04:13:31;28.40;54.70
44863;DHT22;30597;49.628;10.850;2023-07-16T04:15:56;28.40;54.70
44863;DHT22;30597;49.628;10.850;2023-07-16T04:18:23;28.40;54.70
44863;DHT22;30597;49.628;10.850;2023-07-16T04:20:49;28.40;54.60
44863;DHT22;30597;49.628;10.850;2023-07-16T04:23:15;28.40;54.50
44863;DHT22;30597;49.628;10.850;2023-07-16T04:25:40;28.40;54.40
44863;DHT22;30597;49.628;10.850;2023-07-16T04:28:06;28.40;54.50
44863;DHT22;30597;49.628;10.850;2023-07-16T04:30:31;28.40;54.40
44863;DHT22;30597;49.628;10.850;2023-07-16T04:32:57;28.40;54.30
44863;DHT22;30597;49.628;10.850;2023-07-16T04:35:23;28.30;54.20
44863;DHT22;30597;49.628;10.850;2023-07-16T04:37:48;28.40;54.10
44863;DHT22;30597;49.628;10.850;2023-07-16T04:40:14;28.30;54.00
44863;DHT22;30597;49.628;10.850;2023-07-16T04:42:39;28.40;54.10
44863;DHT22;30597;49.628;10.850;2023-07-16T04:45:05;28.40;54.10
44863;DHT22;30597;49.628;10.850;2023-07-16T04:47:31;28.30;53.90
44863;DHT22;30597;49.628;10.850;2023-07-16T04:49:58;28.40;54.00
44863;DHT22;30597;49.628;10.850;2023-07-16T04:52:24;28.30;53.90
44863;DHT22;30597;49.628;10.850;2023-07-16T04:54:50;28.30;53.80
44863;DHT22;30597;49.628;10.850;2023-07-16T04:57:15;28.30;53.90
44863;DHT22;30597;49.628;10.850;2023-07-16T04:59:41;28.30;53.80
44863;DHT22;30597;49.628;10.850;2023-07-16T05:02:06;28.30;53.80
44863;DHT22;30597;49.628;10.850;2023-07-16T05:04:33;28.30;53.70
44863;DHT22;30597;49.628;10.850;2023-07-16T05:07:00;28.30;53.70
44863;DHT22;30597;49.628;10.850;2023-07-16T05:09:26;28.30;53.50
44863;DHT22;30597;49.628;10.850;2023-07-16T05:11:51;28.20;53.40
44863;DHT22;30597;49.628;10.850;2023-07-16T05:14:17;28.30;53.40
44863;DHT22;30597;49.628;10.850;2023-07-16T05:16:42;28.30;53.40
44863;DHT22;30597;49.628;10.850;2023-07-16T05:19:08;28.30;53.30
44863;DHT22;30597;49.628;10.850;2023-07-16T05:21:33;28.30;53.20
44863;DHT22;30597;49.628;10.850;2023-07-16T05:23:59;28.30;53.10
44863;DHT22;30597;49.628;10.850;2023-07-16T05:26:24;28.30;53.10
44863;DHT22;30597;49.628;10.850;2023-07-16T05:28:50;28.30;53.00
44863;DHT22;30597;49.628;10.850;2023-07-16T05:31:15;28.20;52.90
44863;DHT22;30597;49.628;10.850;2023-07-16T05:33:41;28.30;52.80
44863;DHT22;30597;49.628;10.850;2023-07-16T05:36:07;28.30;52.90
44863;DHT22;30597;49.628;10.850;2023-07-16T05:38:32;28.30;52.90
44863;DHT22;30597;49.628;10.850;2023-07-16T05:41:05;28.20;52.80
44863;DHT22;30597;49.628;10.850;2023-07-16T05:43:31;28.30;53.00
44863;DHT22;30597;49.628;10.850;2023-07-16T05:45:57;28.20;52.90
44863;DHT22;30597;49.628;10.850;2023-07-16T05:48:24;28.30;52.80
44863;DHT22;30597;49.628;10.850;2023-07-16T05:50:49;28.30;52.70
44863;DHT22;30597;49.628;10.850;2023-07-16T05:53:15;28.20;52.80
44863;DHT22;30597;49.628;10.850;2023-07-16T05:55:41;28.40;52.70
44863;DHT22;30597;49.628;10.850;2023-07-16T05:58:06;28.20;52.60
44863;DHT22;30597;49.628;10.850;2023-07-16T06:00:32;28.30;52.70
44863;DHT22;30597;49.628;10.850;2023-07-16T06:02:58;28.20;52.50
44863;DHT22;30597;49.628;10.850;2023-07-16T06:05:23;28.20;52.50
44863;DHT22;30597;49.628;10.850;2023-07-16T06:07:51;28.30;52.50
44863;DHT22;30597;49.628;10.850;2023-07-16T06:10:17;28.20;52.30
44863;DHT22;30597;49.628;10.850;2023-07-16T06:12:42;28.30;52.40
44863;DHT22;30597;49.628;10.850;2023-07-16T06:15:08;28.30;52.20
44863;DHT22;30597;49.628;10.850;2023-07-16T06:17:34;28.30;52.20
44863;DHT22;30597;49.628;10.850;2023-07-16T06:19:59;28.30;52.10
44863;DHT22;30597;49.628;10.850;2023-07-16T06:22:25;28.30;52.20
44863;DHT22;30597;49.628;10.850;2023-07-16T06:24:51;28.30;52.20
44863;DHT22;30597;49.628;10.850;2023-07-16T06:27:16;28.20;52.20
44863;DHT22;30597;49.628;10.850;2023-07-16T06:29:42;28.20;52.10
44863;DHT22;30597;49.628;10.850;2023-07-16T06:32:08;28.20;52.10
44863;DHT22;30597;49.628;10.850;2023-07-16T06:34:33;28.20;52.10
44863;DHT22;30597;49.628;10.850;2023-07-16T06:36:59;28.20;52.20
44863;DHT22;30597;49.628;10.850;2023-07-16T06:39:25;28.20;52.10
44863;DHT22;30597;49.628;10.850;2023-07-16T06:41:50;28.20;52.00
44863;DHT22;30597;49.628;10.850;2023-07-16T06:44:16;28.20;52.10
44863;DHT22;30597;49.628;10.850;2023-07-16T06:46:41;28.20;52.20
44863;DHT22;30597;49.628;10.850;2023-07-16T06:49:07;28.30;52.10
44863;DHT22;30597;49.628;10.850;2023-07-16T06:51:33;28.30;52.30
44863;DHT22;30597;49.628;10.850;2023-07-16T06:53:59;28.30;51.90
44863;DHT22;30597;49.628;10.850;2023-07-16T06:56:25;28.40;52.00
44863;DHT22;30597;49.628;10.850;2023-07-16T06:58:50;28.30;51.80
44863;DHT22;30597;49.628;10.850;2023-07-16T07:01:16;28.40;52.00
44863;DHT22;30597;49.628;10.850;2023-07-16T07:03:42;28.40;51.90
44863;DHT22;30597;49.628;10.850;2023-07-16T07:06:07;28.40;51.70
44863;DHT22;30597;49.628;10.850;2023-07-16T07:08:36;28.30;51.60
44863;DHT22;30597;49.628;10.850;2023-07-16T07:11:01;28.40;51.70
44863;DHT22;30597;49.628;10.850;2023-07-16T07:13:27;28.40;51.20
44863;DHT22;30597;49.628;10.850;2023-07-16T07:15:55;28.30;51.20
44863;DHT22;30597;49.628;10.850;2023-07-16T07:18:20;28.30;51.10
44863;DHT22;30597;49.628;10.850;2023-07-16T07:20:46;28.30;51.30
44863;DHT22;30597;49.628;10.850;2023-07-16T07:23:13;28.30;51.40
44863;DHT22;30597;49.628;10.850;2023-07-16T07:25:38;28.30;51.30
44863;DHT22;30597;49.628;10.850;2023-07-16T07:28:04;28.40;51.40
44863;DHT22;30597;49.628;10.850;2023-07-16T07:30:29;28.30;51.50
44863;DHT22;30597;49.628;10.850;2023-07-16T07:32:55;28.30;51.40
44863;DHT22;30597;49.628;10.850;2023-07-16T07:35:20;28.40;51.40
44863;DHT22;30597;49.628;10.850;2023-07-16T07:37:46;28.40;51.30
44863;DHT22;30597;49.628;10.850;2023-07-16T07:40:12;28.40;51.50
44863;DHT22;30597;49.628;10.850;2023-07-16T07:42:37;28.40;51.40
44863;DHT22;30597;49.628;10.850;2023-07-16T07:45:04;28.40;51.30
44863;DHT22;30597;49.628;10.850;2023-07-16T07:47:30;28.40;51.30
44863;DHT22;30597;49.628;10.850;2023-07-16T07:49:55;28.50;51.10
44863;DHT22;30597;49.628;10.850;2023-07-16T07:52:23;28.40;51.10
44863;DHT22;30597;49.628;10.850;2023-07-16T07:54:49;28.50;50.90
44863;DHT22;30597;49.628;10.850;2023-07-16T07:57:19;28.50;50.50
44863;DHT22;30597;49.628;10.850;2023-07-16T07:59:44;28.50;50.50
44863;DHT22;30597;49.628;10.850;2023-07-16T08:02:10;28.50;50.40
44863;DHT22;30597;49.628;10.850;2023-07-16T08:04:36;28.50;50.30
44863;DHT22;30597;49.628;10.850;2023-07-16T08:07:01;28.50;50.20
44863;DHT22;30597;49.628;10.850;2023-07-16T08:09:27;28.50;50.00
44863;DHT22;30597;49.628;10.850;2023-07-16T08:11:53;28.50;49.80
44863;DHT22;30597;49.628;10.850;2023-07-16T08:14:18;28.50;49.70
44863;DHT22;30597;49.628;10.850;2023-07-16T08:16:44;28.50;49.80
44863;DHT22;30597;49.628;10.850;2023-07-16T08:19:09;28.40;50.00
44863;DHT22;30597;49.628;10.850;2023-07-16T08:21:35;28.40;50.20
44863;DHT22;30597;49.628;10.850;2023-07-16T08:24:04;28.40;50.20
44863;DHT22;30597;49.628;10.850;2023-07-16T08:26:30;28.50;50.30
44863;DHT22;30597;49.628;10.850;2023-07-16T08:28:55;28.50;50.20
44863;DHT22;30597;49.628;10.850;2023-07-16T08:31:21;28.50;50.10
44863;DHT22;30597;49.628;10.850;2023-07-16T08:33:47;28.50;50.40
44863;DHT22;30597;49.628;10.850;2023-07-16T08:36:12;28.50;50.00
44863;DHT22;30597;49.628;10.850;2023-07-16T08:38:38;28.60;49.70
44863;DHT22;30597;49.628;10.850;2023-07-16T08:41:03;28.50;49.40
44863;DHT22;30597;49.628;10.850;2023-07-16T08:43:29;28.60;49.30
44863;DHT22;30597;49.628;10.850;2023-07-16T08:45:55;28.60;49.20
44863;DHT22;30597;49.628;10.850;2023-07-16T08:48:21;28.50;48.80
44863;DHT22;30597;49.628;10.850;2023-07-16T08:50:48;28.50;48.80
44863;DHT22;30597;49.628;10.850;2023-07-16T08:53:15;28.50;48.70
44863;DHT22;30597;49.628;10.850;2023-07-16T08:55:45;28.60;48.60
44863;DHT22;30597;49.628;10.850;2023-07-16T08:58:13;28.50;48.50
44863;DHT22;30597;49.628;10.850;2023-07-16T09:00:43;28.50;48.40
44863;DHT22;30597;49.628;10.850;2023-07-16T09:03:11;28.40;48.20
44863;DHT22;30597;49.628;10.850;2023-07-16T09:05:39;28.40;48.20
44863;DHT22;30597;49.628;10.850;2023-07-16T09:08:04;28.40;48.20
44863;DHT22;30597;49.628;10.850;2023-07-16T09:10:30;28.40;48.10
44863;DHT22;30597;49.628;10.850;2023-07-16T09:12:58;28.50;48.10
44863;DHT22;30597;49.628;10.850;2023-07-16T09:15:24;28.40;47.80
44863;DHT22;30597;49.628;10.850;2023-07-16T09:17:50;28.40;47.50
44863;DHT22;30597;49.628;10.850;2023-07-16T09:20:16;28.50;47.60
44863;DHT22;30597;49.628;10.850;2023-07-16T09:22:43;28.50;47.60
44863;DHT22;30597;49.628;10.850;2023-07-16T09:25:09;28.40;47.40
44863;DHT22;30597;49.628;10.850;2023-07-16T09:27:36;28.50;47.60
44863;DHT22;30597;49.628;10.850;2023-07-16T09:30:03;28.50;47.30
44863;DHT22;30597;49.628;10.850;2023-07-16T09:32:34;28.40;47.20
44863;DHT22;30597;49.628;10.850;2023-07-16T09:35:00;28.40;47.40
44863;DHT22;30597;49.628;10.850;2023-07-16T09:37:27;28.50;47.00
44863;DHT22;30597;49.628;10.850;2023-07-16T09:39:53;28.50;47.00
44863;DHT22;30597;49.628;10.850;2023-07-16T09:42:19;28.50;47.10
44863;DHT22;30597;49.628;10.850;2023-07-16T09:44:46;28.40;46.80
44863;DHT22;30597;49.628;10.850;2023-07-16T09:47:12;28.40;46.60
44863;DHT22;30597;49.628;10.850;2023-07-16T09:49:38;28.40;46.50
44863;DHT22;30597;49.628;10.850;2023-07-16T09:52:04;28.40;46.50
44863;DHT22;30597;49.628;10.850;2023-07-16T09:54:32;28.40;46.60
44863;DHT22;30597;49.628;10.850;2023-07-16T09:57:03;28.40;46.40
44863;DHT22;30597;49.628;10.850;2023-07-16T09:59:31;28.40;46.40
44863;DHT22;30597;49.628;10.850;2023-07-16T10:01:57;28.50;46.50
44863;DHT22;30597;49.628;10.850;2023-07-16T10:04:23;28.40;46.50
44863;DHT22;30597;49.628;10.850;2023-07-16T10:06:54;28.50;46.50
44863;DHT22;30597;49.628;10.850;2023-07-16T10:09:50;28.40;45.90
44863;DHT22;30597;49.628;10.850;2023-07-16T10:12:17;28.40;46.00
44863;DHT22;30597;49.628;10.850;2023-07-16T10:14:51;28.40;45.80
44863;DHT22;30597;49.628;10.850;2023-07-16T10:17:25;28.40;45.80
44863;DHT22;30597;49.628;10.850;2023-07-16T10:19:59;28.40;46.00
44863;DHT22;30597;49.628;10.850;2023-07-16T10:22:33;28.40;45.80
44863;DHT22;30597;49.628;10.850;2023-07-16T10:24:59;28.40;45.60
44863;DHT22;30597;49.628;10.850;2023-07-16T10:27:30;28.40;45.90
44863;DHT22;30597;49.628;10.850;2023-07-16T10:29:56;28.40;45.80
44863;DHT22;30597;49.628;10.850;2023-07-16T10:32:26;28.40;45.10
44863;DHT22;30597;49.628;10.850;2023-07-16T10:34:52;28.40;45.30
44863;DHT22;30597;49.628;10.850;2023-07-16T10:37:18;28.40;46.00
44863;DHT22;30597;49.628;10.850;2023-07-16T10:39:52;28.40;46.50
44863;DHT22;30597;49.628;10.850;2023-07-16T10:42:19;28.40;47.00
44863;DHT22;30597;49.628;10.850;2023-07-16T10:44:45;28.40;47.10
44863;DHT22;30597;49.628;10.850;2023-07-16T10:47:25;28.40;47.40
44863;DHT22;30597;49.628;10.850;2023-07-16T10:49:51;28.40;46.80
44863;DHT22;30597;49.628;10.850;2023-07-16T10:52:21;28.40;46.50
44863;DHT22;30597;49.628;10.850;2023-07-16T10:54:48;28.40;46.40
44863;DHT22;30597;49.628;10.850;2023-07-16T10:57:20;28.50;46.10
44863;DHT22;30597;49.628;10.850;2023-07-16T10:59:46;28.50;45.80
44863;DHT22;30597;49.628;10.850;2023-07-16T11:02:13;28.50;46.10
44863;DHT22;30597;49.628;10.850;2023-07-16T11:04:40;28.40;45.90
44863;DHT22;30597;49.628;10.850;2023-07-16T11:07:07;28.40;45.70
44863;DHT22;30597;49.628;10.850;2023-07-16T11:09:34;28.40;46.20
44863;DHT22;30597;49.628;10.850;2023-07-16T11:12:11;28.40;46.60
44863;DHT22;30597;49.628;10.850;2023-07-16T11:14:37;28.40;46.70
44863;DHT22;30597;49.628;10.850;2023-07-16T11:17:09;28.50;47.40
44863;DHT22;30597;49.628;10.850;2023-07-16T11:19:36;28.50;47.30
44863;DHT22;30597;49.628;10.850;2023-07-16T11:22:04;28.50;47.30
44863;DHT22;30597;49.628;10.850;2023-07-16T11:27:12;28.60;47.00
44863;DHT22;30597;49.628;10.850;2023-07-16T11:29:38;28.60;47.20
44863;DHT22;30597;49.628;10.850;2023-07-16T11:32:04;28.60;46.90
44863;DHT22;30597;49.628;10.850;2023-07-16T11:34:30;28.60;46.80
44863;DHT22;30597;49.628;10.850;2023-07-16T11:36:55;28.60;46.60
44863;DHT22;30597;49.628;10.850;2023-07-16T11:39:31;28.60;46.70
44863;DHT22;30597;49.628;10.850;2023-07-16T11:41:57;28.50;46.50
44863;DHT22;30597;49.628;10.850;2023-07-16T11:44:22;28.60;46.30
44863;DHT22;30597;49.628;10.850;2023-07-16T11:46:48;28.50;46.30
44863;DHT22;30597;49.628;10.850;2023-07-16T11:49:13;28.50;45.80
44863;DHT22;30597;49.628;10.850;2023-07-16T11:51:39;28.50;46.00
44863;DHT22;30597;49.628;10.850;2023-07-16T11:54:05;28.50;45.50
44863;DHT22;30597;49.628;10.850;2023-07-16T11:56:30;28.50;46.30
44863;DHT22;30597;49.628;10.850;2023-07-16T11:58:56;28.40;45.60
44863;DHT22;30597;49.628;10.850;2023-07-16T12:01:21;28.50;45.10
44863;DHT22;30597;49.628;10.850;2023-07-16T12:03:47;28.40;45.10
44863;DHT22;30597;49.628;10.850;2023-07-16T12:06:12;28.50;45.40
44863;DHT22;30597;49.628;10.850;2023-07-16T12:08:38;28.40;45.30
44863;DHT22;30597;49.628;10.850;2023-07-16T12:11:04;28.40;44.80
44863;DHT22;30597;49.628;10.850;2023-07-16T12:13:29;28.30;44.40
44863;DHT22;30597;49.628;10.850;2023-07-16T12:15:55;28.40;45.00
44863;DHT22;30597;49.628;10.850;2023-07-16T12:18:21;28.40;44.90
44863;DHT22;30597;49.628;10.850;2023-07-16T12:20:47;28.40;44.80
44863;DHT22;30597;49.628;10.850;2023-07-16T12:23:13;28.30;44.60
44863;DHT22;30597;49.628;10.850;2023-07-16T12:25:38;28.40;44.60
44863;DHT22;30597;49.628;10.850;2023-07-16T12:28:04;28.30;44.60
44863;DHT22;30597;49.628;10.850;2023-07-16T12:30:40;28.30;44.20
44863;DHT22;30597;49.628;10.850;2023-07-16T12:33:05;28.40;44.80
44863;DHT22;30597;49.628;10.850;2023-07-16T12:35:31;28.30;44.20
44863;DHT22;30597;49.628;10.850;2023-07-16T12:37:57;28.30;43.90
44863;DHT22;30597;49.628;10.850;2023-07-16T12:40:26;28.30;43.90
44863;DHT22;30597;49.628;10.850;2023-07-16T12:42:53;28.30;43.90
44863;DHT22;30597;49.628;10.850;2023-07-16T12:45:18;28.30;44.00
44863;DHT22;30597;49.628;10.850;2023-07-16T12:47:44;28.30;44.00
44863;DHT22;30597;49.628;10.850;2023-07-16T12:50:09;28.30;44.20
44863;DHT22;30597;49.628;10.850;2023-07-16T12:52:35;28.30;44.30
44863;DHT22;30597;49.628;10.850;2023-07-16T12:55:01;28.30;44.00
44863;DHT22;30597;49.628;10.850;2023-07-16T12:57:26;28.30;44.50
44863;DHT22;30597;49.628;10.850;2023-07-16T12:59:52;28.30;44.30
44863;DHT22;30597;49.628;10.850;2023-07-16T13:02:17;28.30;44.30
44863;DHT22;30597;49.628;10.850;2023-07-16T13:04:43;28.30;44.40
44863;DHT22;30597;49.628;10.850;2023-07-16T13:07:08;28.40;44.40
44863;DHT22;30597;49.628;10.850;2023-07-16T13:09:34;28.30;44.30
44863;DHT22;30597;49.628;10.850;2023-07-16T13:11:59;28.30;44.30
44863;DHT22;30597;49.628;10.850;2023-07-16T13:14:26;28.30;44.40
44863;DHT22;30597;49.628;10.850;2023-07-16T13:16:51;28.30;44.50
44863;DHT22;30597;49.628;10.850;2023-07-16T13:19:17;28.30;44.40
44863;DHT22;30597;49.628;10.850;2023-07-16T13:21:42;28.30;44.50
44863;DHT22;30597;49.628;10.850;2023-07-16T13:24:08;28.20;44.50
44863;DHT22;30597;49.628;10.850;2023-07-16T13:26:34;28.30;44.40
44863;DHT22;30597;49.628;10.850;2023-07-16T13:28:59;28.20;44.40
44863;DHT22;30597;49.628;10.850;2023-07-16T13:31:25;28.30;44.40
44863;DHT22;30597;49.628;10.850;2023-07-16T13:33:50;28.30;44.40
44863;DHT22;30597;49.628;10.850;2023-07-16T13:36:16;28.20;44.40
44863;DHT22;30597;49.628;10.850;2023-07-16T13:38:41;28.20;44.10
44863;DHT22;30597;49.628;10.850;2023-07-16T13:41:07;28.20;44.00
44863;DHT22;30597;49.628;10.850;2023-07-16T13:43:32;28.20;44.20
44863;DHT22;30597;49.628;10.850;2023-07-16T13:45:58;28.30;44.60
44863;DHT22;30597;49.628;10.850;2023-07-16T13:48:23;28.20;45.20
44863;DHT22;30597;49.628;10.850;2023-07-16T13:50:49;28.40;45.90
44863;DHT22;30597;49.628;10.850;2023-07-16T13:53:14;28.40;46.50
44863;DHT22;30597;49.628;10.850;2023-07-16T13:55:40;28.40;46.80
44863;DHT22;30597;49.628;10.850;2023-07-16T13:58:06;28.50;47.00
44863;DHT22;30597;49.628;10.850;2023-07-16T14:00:31;28.60;46.90
44863;DHT22;30597;49.628;10.850;2023-07-16T14:02:57;28.50;46.50
44863;DHT22;30597;49.628;10.850;2023-07-16T14:05:22;28.50;46.20
44863;DHT22;30597;49.628;10.850;2023-07-16T14:07:48;28.40;45.90
44863;DHT22;30597;49.628;10.850;2023-07-16T14:10:15;28.40;46.10
44863;DHT22;30597;49.628;10.850;2023-07-16T14:12:40;28.40;45.80
44863;DHT22;30597;49.628;10.850;2023-07-16T14:15:06;28.50;45.60
44863;DHT22;30597;49.628;10.850;2023-07-16T14:17:32;28.40;45.40
44863;DHT22;30597;49.628;10.850;2023-07-16T14:19:57;28.40;45.40
44863;DHT22;30597;49.628;10.850;2023-07-16T14:22:23;28.30;45.10
44863;DHT22;30597;49.628;10.850;2023-07-16T14:24:53;28.30;45.20
44863;DHT22;30597;49.628;10.850;2023-07-16T14:27:18;28.30;45.30
44863;DHT22;30597;49.628;10.850;2023-07-16T14:29:45;28.50;44.90
44863;DHT22;30597;49.628;10.850;2023-07-16T14:32:11;28.50;44.70
44863;DHT22;30597;49.628;10.850;2023-07-16T14:34:36;28.50;44.40
44863;DHT22;30597;49.628;10.850;2023-07-16T14:37:02;28.50;44.10
44863;DHT22;30597;49.628;10.850;2023-07-16T14:39:28;28.50;43.80
44863;DHT22;30597;49.628;10.850;2023-07-16T14:41:53;28.60;43.80
44863;DHT22;30597;49.628;10.850;2023-07-16T14:44:19;28.60;43.90
44863;DHT22;30597;49.628;10.850;2023-07-16T14:46:44;28.70;43.80
44863;DHT22;30597;49.628;10.850;2023-07-16T14:49:10;28.70;43.80
44863;DHT22;30597;49.628;10.850;2023-07-16T14:51:35;28.60;42.50
44863;DHT22;30597;49.628;10.850;2023-07-16T14:54:06;28.70;42.10
44863;DHT22;30597;49.628;10.850;2023-07-16T14:56:32;28.60;42.60
44863;DHT22;30597;49.628;10.850;2023-07-16T14:58:57;28.50;43.00
44863;DHT22;30597;49.628;10.850;2023-07-16T15:01:23;28.40;42.60
44863;DHT22;30597;49.628;10.850;2023-07-16T15:03:49;28.40;42.00
44863;DHT22;30597;49.628;10.850;2023-07-16T15:06:14;28.30;42.50
44863;DHT22;30597;49.628;10.850;2023-07-16T15:08:40;28.50;42.60
44863;DHT22;30597;49.628;10.850;2023-07-16T15:11:06;28.40;42.80
44863;DHT22;30597;49.628;10.850;2023-07-16T15:13:31;28.40;43.50
44863;DHT22;30597;49.628;10.850;2023-07-16T15:16:05;28.50;43.30
44863;DHT22;30597;49.628;10.850;2023-07-16T15:18:30;28.40;43.20
44863;DHT22;30597;49.628;10.850;2023-07-16T15:21:00;28.40;43.30
44863;DHT22;30597;49.628;10.850;2023-07-16T15:23:29;28.30;43.80
44863;DHT22;30597;49.628;10.850;2023-07-16T15:26:00;28.50;44.40
44863;DHT22;30597;49.628;10.850;2023-07-16T15:28:26;28.40;44.00
44863;DHT22;30597;49.628;10.850;2023-07-16T15:30:51;28.60;43.60
44863;DHT22;30597;49.628;10.850;2023-07-16T15:33:17;28.50;43.20
44863;DHT22;30597;49.628;10.850;2023-07-16T15:35:42;28.60;43.00
44863;DHT22;30597;49.628;10.850;2023-07-16T15:38:08;28.60;43.00
44863;DHT22;30597;49.628;10.850;2023-07-16T15:40:34;28.60;43.00
44863;DHT22;30597;49.628;10.850;2023-07-16T15:43:00;28.70;42.90
44863;DHT22;30597;49.628;10.850;2023-07-16T15:45:26;28.90;42.50
44863;DHT22;30597;49.628;10.850;2023-07-16T15:47:51;28.90;42.70
44863;DHT22;30597;49.628;10.850;2023-07-16T15:50:23;29.00;42.60
44863;DHT22;30597;49.628;10.850;2023-07-16T15:52:51;29.30;42.20
44863;DHT22;30597;49.628;10.850;2023-07-16T15:55:16;29.60;41.40
44863;DHT22;30597;49.628;10.850;2023-07-16T15:57:43;29.30;42.10
44863;DHT22;30597;49.628;10.850;2023-07-16T16:00:09;29.20;42.50
44863;DHT22;30597;49.628;10.850;2023-07-16T16:02:40;29.30;42.40